sensor_id;sensor_type;location;lat;lon;timestamp;pressure;altitude;pressure_sealevel;temperature;humidity
4705;BME280;2366;51.332;6.610;2023-03-14T00:00:10;98929.81;;;15.14;62.81
4705;BME280;2366;51.332;6.610;2023-03-14T00:02:37;98938.81;;;15.13;62.44
4705;BME280;2366;51.332;6.610;2023-03-14T00:05:02;98926.81;;;15.17;62.48
4705;BME280;2366;51.332;6.610;2023-03-14T00:07:33;98919.66;;;15.10;62.49
4705;BME280;2366;51.332;6.610;2023-03-14T00:10:01;98916.31;;;15.24;61.64
4705;BME280;2366;51.332;6.610;2023-03-14T00:12:27;98915.78;;;15.37;61.57
4705;BME280;2366;51.332;6.610;2023-03-14T00:14:52;98914.31;;;15.43;61.30
4705;BME280;2366;51.332;6.610;2023-03-14T00:17:17;98919.50;;;15.44;61.30
4705;BME280;2366;51.332;6.610;2023-03-14T00:19:43;98936.66;;;15.50;60.90
4705;BME280;2366;51.332;6.610;2023-03-14T00:22:08;98945.16;;;15.29;63.10
4705;BME280;2366;51.332;6.610;2023-03-14T00:24:34;98933.81;;;15.10;65.24
4705;BME280;2366;51.332;6.610;2023-03-14T00:26:59;98942.78;;;14.85;67.02
4705;BME280;2366;51.332;6.610;2023-03-14T00:29:24;98949.72;;;14.61;68.69
4705;BME280;2366;51.332;6.610;2023-03-14T00:31:50;98962.34;;;14.51;69.22
4705;BME280;2366;51.332;6.610;2023-03-14T00:34:15;98959.38;;;14.20;70.37
4705;BME280;2366;51.332;6.610;2023-03-14T00:36:40;98945.19;;;14.11;71.00
4705;BME280;2366;51.332;6.610;2023-03-14T00:39:06;98961.31;;;14.09;70.95
4705;BME280;2366;51.332;6.610;2023-03-14T00:41:31;98962.75;;;13.95;71.47
4705;BME280;2366;51.332;6.610;2023-03-14T00:43:56;98963.75;;;13.94;71.25
4705;BME280;2366;51.332;6.610;2023-03-14T00:46:22;98963.38;;;13.89;70.93
4705;BME280;2366;51.332;6.610;2023-03-14T00:48:47;98958.16;;;13.80;70.10
4705;BME280;2366;51.332;6.610;2023-03-14T00:51:13;98955.66;;;13.78;70.60
4705;BME280;2366;51.332;6.610;2023-03-14T00:53:40;98955.19;;;13.83;70.86
4705;BME280;2366;51.332;6.610;2023-03-14T00:56:08;98961.88;;;13.87;70.95
4705;BME280;2366;51.332;6.610;2023-03-14T00:58:34;98954.44;;;13.72;70.80
4705;BME280;2366;51.332;6.610;2023-03-14T01:01:06;98956.97;;;13.74;70.80
4705;BME280;2366;51.332;6.610;2023-03-14T01:03:31;98958.16;;;13.80;71.03
4705;BME280;2366;51.332;6.610;2023-03-14T01:06:07;98956.00;;;13.83;70.59
4705;BME280;2366;51.332;6.610;2023-03-14T01:08:32;98958.66;;;13.83;70.78
4705;BME280;2366;51.332;6.610;2023-03-14T01:10:58;98964.00;;;13.83;70.42
4705;BME280;2366;51.332;6.610;2023-03-14T01:13:23;98961.72;;;13.88;70.48
4705;BME280;2366;51.332;6.610;2023-03-14T01:15:48;98957.56;;;13.86;70.14
4705;BME280;2366;51.332;6.610;2023-03-14T01:18:14;98951.47;;;13.75;70.46
4705;BME280;2366;51.332;6.610;2023-03-14T01:20:39;98948.28;;;13.72;70.10
4705;BME280;2366;51.332;6.610;2023-03-14T01:23:04;98952.72;;;13.63;70.40
4705;BME280;2366;51.332;6.610;2023-03-14T01:25:30;98957.69;;;13.58;70.17
4705;BME280;2366;51.332;6.610;2023-03-14T01:27:55;98955.84;;;13.59;70.07
4705;BME280;2366;51.332;6.610;2023-03-14T01:30:20;98954.19;;;13.58;70.26
4705;BME280;2366;51.332;6.610;2023-03-14T01:32:46;98939.06;;;13.58;70.15
4705;BME280;2366;51.332;6.610;2023-03-14T01:35:11;98940.22;;;13.55;70.03
4705;BME280;2366;51.332;6.610;2023-03-14T01:37:37;98938.88;;;13.60;69.57
4705;BME280;2366;51.332;6.610;2023-03-14T01:40:04;98939.34;;;13.55;69.92
4705;BME280;2366;51.332;6.610;2023-03-14T01:42:30;98939.75;;;13.60;69.86
4705;BME280;2366;51.332;6.610;2023-03-14T01:45:01;98931.28;;;13.65;69.68
4705;BME280;2366;51.332;6.610;2023-03-14T01:47:26;98921.13;;;13.68;69.48
4705;BME280;2366;51.332;6.610;2023-03-14T01:50:09;98927.38;;;13.77;68.84
4705;BME280;2366;51.332;6.610;2023-03-14T01:55:05;98932.84;;;13.75;68.66
4705;BME280;2366;51.332;6.610;2023-03-14T01:57:35;98928.88;;;13.80;68.47
4705;BME280;2366;51.332;6.610;2023-03-14T02:00:17;98937.69;;;13.80;68.49
4705;BME280;2366;51.332;6.610;2023-03-14T02:02:58;98929.84;;;13.79;68.24
4705;BME280;2366;51.332;6.610;2023-03-14T02:05:29;98907.19;;;13.74;68.44
4705;BME280;2366;51.332;6.610;2023-03-14T02:08:02;98909.38;;;13.79;67.89
4705;BME280;2366;51.332;6.610;2023-03-14T02:10:32;98905.38;;;13.75;67.92
4705;BME280;2366;51.332;6.610;2023-03-14T02:13:01;98916.34;;;13.72;68.33
4705;BME280;2366;51.332;6.610;2023-03-14T02:15:28;98926.69;;;13.75;68.43
4705;BME280;2366;51.332;6.610;2023-03-14T02:17:54;98915.84;;;13.76;68.36
4705;BME280;2366;51.332;6.610;2023-03-14T02:23:09;98911.88;;;13.81;68.28
4705;BME280;2366;51.332;6.610;2023-03-14T02:28:06;98928.47;;;13.66;69.16
4705;BME280;2366;51.332;6.610;2023-03-14T02:30:33;98932.16;;;13.73;69.09
4705;BME280;2366;51.332;6.610;2023-03-14T02:33:03;98934.72;;;13.83;68.81
4705;BME280;2366;51.332;6.610;2023-03-14T02:35:33;98928.75;;;13.89;68.51
4705;BME280;2366;51.332;6.610;2023-03-14T02:38:06;98931.41;;;13.89;68.27
4705;BME280;2366;51.332;6.610;2023-03-14T02:40:34;98926.22;;;13.80;69.05
4705;BME280;2366;51.332;6.610;2023-03-14T02:42:59;98925.34;;;13.79;69.12
4705;BME280;2366;51.332;6.610;2023-03-14T02:45:28;98932.25;;;13.90;68.59
4705;BME280;2366;51.332;6.610;2023-03-14T02:48:02;98924.09;;;13.91;68.41
4705;BME280;2366;51.332;6.610;2023-03-14T02:50:31;98926.13;;;13.97;68.42
4705;BME280;2366;51.332;6.610;2023-03-14T02:52:58;98921.25;;;13.85;68.46
4705;BME280;2366;51.332;6.610;2023-03-14T02:55:24;98923.13;;;13.92;68.17
4705;BME280;2366;51.332;6.610;2023-03-14T02:57:52;98914.66;;;13.97;67.79
4705;BME280;2366;51.332;6.610;2023-03-14T03:00:17;98917.13;;;13.90;68.07
4705;BME280;2366;51.332;6.610;2023-03-14T03:02:43;98915.16;;;14.01;67.31
4705;BME280;2366;51.332;6.610;2023-03-14T03:05:08;98913.50;;;14.00;67.63
4705;BME280;2366;51.332;6.610;2023-03-14T03:07:33;98908.00;;;14.01;67.46
4705;BME280;2366;51.332;6.610;2023-03-14T03:09:59;98902.69;;;14.01;67.03
4705;BME280;2366;51.332;6.610;2023-03-14T03:12:24;98904.19;;;14.04;67.12
4705;BME280;2366;51.332;6.610;2023-03-14T03:14:50;98897.47;;;13.91;67.32
4705;BME280;2366;51.332;6.610;2023-03-14T03:17:15;98903.53;;;14.02;66.89
4705;BME280;2366;51.332;6.610;2023-03-14T03:19:41;98906.03;;;14.03;66.98
4705;BME280;2366;51.332;6.610;2023-03-14T03:22:06;98895.38;;;14.03;66.86
4705;BME280;2366;51.332;6.610;2023-03-14T03:24:32;98897.84;;;14.05;66.82
4705;BME280;2366;51.332;6.610;2023-03-14T03:26:57;98902.69;;;14.01;67.41
4705;BME280;2366;51.332;6.610;2023-03-14T03:29:23;98910.31;;;13.96;67.88
4705;BME280;2366;51.332;6.610;2023-03-14T03:31:48;98901.13;;;13.90;68.64
4705;BME280;2366;51.332;6.610;2023-03-14T03:34:14;98893.72;;;13.76;69.35
4705;BME280;2366;51.332;6.610;2023-03-14T03:36:39;98891.97;;;13.59;70.15
4705;BME280;2366;51.332;6.610;2023-03-14T03:39:04;98887.06;;;13.46;70.93
4705;BME280;2366;51.332;6.610;2023-03-14T03:41:30;98889.25;;;13.50;71.55
4705;BME280;2366;51.332;6.610;2023-03-14T03:43:56;98896.59;;;13.56;71.18
4705;BME280;2366;51.332;6.610;2023-03-14T03:46:21;98887.94;;;13.54;71.35
4705;BME280;2366;51.332;6.610;2023-03-14T03:48:47;98876.94;;;13.49;71.47
4705;BME280;2366;51.332;6.610;2023-03-14T03:51:14;98873.59;;;13.47;71.98
4705;BME280;2366;51.332;6.610;2023-03-14T03:53:40;98884.75;;;13.51;71.56
4705;BME280;2366;51.332;6.610;2023-03-14T03:56:06;98879.44;;;13.51;71.88
4705;BME280;2366;51.332;6.610;2023-03-14T03:58:31;98882.28;;;13.49;71.66
4705;BME280;2366;51.332;6.610;2023-03-14T04:00:57;98875.53;;;13.37;72.58
4705;BME280;2366;51.332;6.610;2023-03-14T04:03:22;98890.72;;;13.27;72.79
4705;BME280;2366;51.332;6.610;2023-03-14T04:06:01;98884.13;;;13.13;73.45
4705;BME280;2366;51.332;6.610;2023-03-14T04:08:27;98887.13;;;13.10;73.93
4705;BME280;2366;51.332;6.610;2023-03-14T04:11:00;98875.00;;;13.15;74.21
4705;BME280;2366;51.332;6.610;2023-03-14T04:13:26;98884.44;;;13.10;74.13
4705;BME280;2366;51.332;6.610;2023-03-14T04:15:52;98884.97;;;13.13;74.38
4705;BME280;2366;51.332;6.610;2023-03-14T04:18:19;98871.91;;;13.02;74.63
4705;BME280;2366;51.332;6.610;2023-03-14T04:20:44;98878.53;;;12.98;75.14
4705;BME280;2366;51.332;6.610;2023-03-14T04:23:10;98879.53;;;12.97;75.40
4705;BME280;2366;51.332;6.610;2023-03-14T04:25:36;98870.19;;;12.93;75.51
4705;BME280;2366;51.332;6.610;2023-03-14T04:28:01;98878.41;;;12.82;76.00
4705;BME280;2366;51.332;6.610;2023-03-14T04:30:28;98870.25;;;12.83;76.00
4705;BME280;2366;51.332;6.610;2023-03-14T04:32:53;98870.94;;;12.85;76.04
4705;BME280;2366;51.332;6.610;2023-03-14T04:35:19;98861.44;;;12.83;76.29
4705;BME280;2366;51.332;6.610;2023-03-14T04:37:44;98873.06;;;12.82;76.38
4705;BME280;2366;51.332;6.610;2023-03-14T04:40:10;98872.22;;;12.81;76.74
4705;BME280;2366;51.332;6.610;2023-03-14T04:42:36;98872.53;;;12.78;76.81
4705;BME280;2366;51.332;6.610;2023-03-14T04:45:02;98865.03;;;12.73;76.90
4705;BME280;2366;51.332;6.610;2023-03-14T04:47:27;98854.38;;;12.73;77.01
4705;BME280;2366;51.332;6.610;2023-03-14T04:49:53;98854.38;;;12.73;77.37
4705;BME280;2366;51.332;6.610;2023-03-14T04:52:18;98853.03;;;12.69;77.14
4705;BME280;2366;51.332;6.610;2023-03-14T04:54:44;98844.03;;;12.70;77.28
4705;BME280;2366;51.332;6.610;2023-03-14T04:57:09;98843.75;;;12.73;77.93
4705;BME280;2366;51.332;6.610;2023-03-14T04:59:34;98835.09;;;12.71;77.85
4705;BME280;2366;51.332;6.610;2023-03-14T05:01:59;98845.59;;;12.73;77.97
4705;BME280;2366;51.332;6.610;2023-03-14T05:04:25;98833.13;;;12.73;77.54
4705;BME280;2366;51.332;6.610;2023-03-14T05:06:50;98826.78;;;12.74;78.00
4705;BME280;2366;51.332;6.610;2023-03-14T05:09:16;98824.47;;;12.71;78.11
4705;BME280;2366;51.332;6.610;2023-03-14T05:11:42;98822.25;;;12.67;78.84
4705;BME280;2366;51.332;6.610;2023-03-14T05:14:07;98821.72;;;12.63;78.72
4705;BME280;2366;51.332;6.610;2023-03-14T05:16:33;98822.19;;;12.59;79.26
4705;BME280;2366;51.332;6.610;2023-03-14T05:18:58;98824.31;;;12.55;79.87
4705;BME280;2366;51.332;6.610;2023-03-14T05:21:23;98816.50;;;12.53;80.48
4705;BME280;2366;51.332;6.610;2023-03-14T05:23:49;98814.44;;;12.47;81.00
4705;BME280;2366;51.332;6.610;2023-03-14T05:26:14;98810.66;;;12.50;84.69
4705;BME280;2366;51.332;6.610;2023-03-14T05:28:42;98800.75;;;12.42;88.42
4705;BME280;2366;51.332;6.610;2023-03-14T05:31:08;98790.13;;;12.24;90.83
4705;BME280;2366;51.332;6.610;2023-03-14T05:33:33;98786.78;;;12.22;92.34
4705;BME280;2366;51.332;6.610;2023-03-14T05:35:59;98789.91;;;12.18;92.47
4705;BME280;2366;51.332;6.610;2023-03-14T05:38:24;98787.69;;;12.13;94.94
4705;BME280;2366;51.332;6.610;2023-03-14T05:40:49;98788.84;;;12.28;96.07
4705;BME280;2366;51.332;6.610;2023-03-14T05:43:15;98791.19;;;12.31;95.40
4705;BME280;2366;51.332;6.610;2023-03-14T05:45:42;98792.06;;;12.32;95.67
4705;BME280;2366;51.332;6.610;2023-03-14T05:48:07;98790.81;;;12.26;94.33
4705;BME280;2366;51.332;6.610;2023-03-14T05:50:33;98793.03;;;12.31;96.57
4705;BME280;2366;51.332;6.610;2023-03-14T05:52:58;98782.63;;;12.38;97.54
4705;BME280;2366;51.332;6.610;2023-03-14T05:55:24;98790.66;;;12.46;97.34
4705;BME280;2366;51.332;6.610;2023-03-14T05:57:49;98791.00;;;12.43;96.61
4705;BME280;2366;51.332;6.610;2023-03-14T06:00:15;98788.00;;;12.46;97.07
4705;BME280;2366;51.332;6.610;2023-03-14T06:02:40;98780.03;;;12.46;97.35
4705;BME280;2366;51.332;6.610;2023-03-14T06:05:06;98788.00;;;12.46;97.82
4705;BME280;2366;51.332;6.610;2023-03-14T06:07:32;98782.16;;;12.60;97.29
4705;BME280;2366;51.332;6.610;2023-03-14T06:09:57;98781.84;;;12.63;97.29
4705;BME280;2366;51.332;6.610;2023-03-14T06:12:23;98791.94;;;12.60;97.32
4705;BME280;2366;51.332;6.610;2023-03-14T06:14:49;98791.19;;;12.67;96.44
4705;BME280;2366;51.332;6.610;2023-03-14T06:17:14;98787.75;;;12.75;98.61
4705;BME280;2366;51.332;6.610;2023-03-14T06:19:40;98797.25;;;12.78;98.89
4705;BME280;2366;51.332;6.610;2023-03-14T06:22:05;98786.84;;;12.84;98.68
4705;BME280;2366;51.332;6.610;2023-03-14T06:24:31;98792.16;;;12.84;98.70
4705;BME280;2366;51.332;6.610;2023-03-14T06:26:56;98790.00;;;12.88;98.53
4705;BME280;2366;51.332;6.610;2023-03-14T06:29:21;98789.44;;;12.76;94.12
4705;BME280;2366;51.332;6.610;2023-03-14T06:31:47;98786.06;;;12.92;98.98
4705;BME280;2366;51.332;6.610;2023-03-14T06:34:12;98786.44;;;12.97;97.75
4705;BME280;2366;51.332;6.610;2023-03-14T06:36:37;98787.53;;;13.12;98.74
4705;BME280;2366;51.332;6.610;2023-03-14T06:39:03;98785.13;;;13.01;97.78
4705;BME280;2366;51.332;6.610;2023-03-14T06:41:28;98793.13;;;13.01;98.01
4705;BME280;2366;51.332;6.610;2023-03-14T06:43:53;98793.22;;;13.18;99.72
4705;BME280;2366;51.332;6.610;2023-03-14T06:46:19;98784.94;;;13.21;98.12
4705;BME280;2366;51.332;6.610;2023-03-14T06:48:44;98792.47;;;13.07;95.39
4705;BME280;2366;51.332;6.610;2023-03-14T06:51:09;98796.34;;;13.13;97.35
4705;BME280;2366;51.332;6.610;2023-03-14T06:53:35;98799.31;;;13.10;97.08
4705;BME280;2366;51.332;6.610;2023-03-14T06:56:00;98790.88;;;13.14;98.43
4705;BME280;2366;51.332;6.610;2023-03-14T06:58:26;98793.94;;;13.28;98.08
4705;BME280;2366;51.332;6.610;2023-03-14T07:00:52;98803.38;;;13.22;98.26
4705;BME280;2366;51.332;6.610;2023-03-14T07:03:18;98802.03;;;13.44;97.12
4705;BME280;2366;51.332;6.610;2023-03-14T07:05:43;98809.88;;;13.80;95.82
4705;BME280;2366;51.332;6.610;2023-03-14T07:08:09;98807.97;;;13.64;98.32
4705;BME280;2366;51.332;6.610;2023-03-14T07:10:34;98824.06;;;13.54;96.52
4705;BME280;2366;51.332;6.610;2023-03-14T07:13:00;98813.44;;;13.63;98.25
4705;BME280;2366;51.332;6.610;2023-03-14T07:15:26;98811.50;;;13.73;97.66
4705;BME280;2366;51.332;6.610;2023-03-14T07:17:51;98819.22;;;13.84;98.50
4705;BME280;2366;51.332;6.610;2023-03-14T07:20:17;98816.97;;;13.71;96.44
4705;BME280;2366;51.332;6.610;2023-03-14T07:22:42;98822.50;;;13.78;98.51
4705;BME280;2366;51.332;6.610;2023-03-14T07:25:08;98823.66;;;13.75;96.37
4705;BME280;2366;51.332;6.610;2023-03-14T07:27:36;98823.72;;;13.84;98.90
4705;BME280;2366;51.332;6.610;2023-03-14T07:30:02;98820.19;;;13.83;97.39
4705;BME280;2366;51.332;6.610;2023-03-14T07:32:27;98817.81;;;13.72;97.23
4705;BME280;2366;51.332;6.610;2023-03-14T07:34:53;98818.00;;;13.79;98.88
4705;BME280;2366;51.332;6.610;2023-03-14T07:37:18;98822.34;;;13.80;96.31
4705;BME280;2366;51.332;6.610;2023-03-14T07:39:43;98824.63;;;13.66;94.64
4705;BME280;2366;51.332;6.610;2023-03-14T07:42:09;98833.06;;;13.62;95.35
4705;BME280;2366;51.332;6.610;2023-03-14T07:44:36;98832.31;;;13.77;99.19
4705;BME280;2366;51.332;6.610;2023-03-14T07:47:01;98835.66;;;13.80;98.38
4705;BME280;2366;51.332;6.610;2023-03-14T07:49:27;98825.13;;;13.70;97.54
4705;BME280;2366;51.332;6.610;2023-03-14T07:51:52;98837.53;;;13.87;99.38
4705;BME280;2366;51.332;6.610;2023-03-14T07:54:17;98840.56;;;14.01;99.64
4705;BME280;2366;51.332;6.610;2023-03-14T07:56:43;98844.22;;;14.00;99.85
4705;BME280;2366;51.332;6.610;2023-03-14T07:59:08;98853.06;;;14.00;99.41
4705;BME280;2366;51.332;6.610;2023-03-14T08:01:34;98853.56;;;14.04;99.73
4705;BME280;2366;51.332;6.610;2023-03-14T08:03:59;98855.91;;;14.07;99.92
4705;BME280;2366;51.332;6.610;2023-03-14T08:06:25;98855.06;;;14.06;100.00
4705;BME280;2366;51.332;6.610;2023-03-14T08:08:50;98852.59;;;14.13;99.76
4705;BME280;2366;51.332;6.610;2023-03-14T08:11:16;98859.31;;;14.25;100.00
4705;BME280;2366;51.332;6.610;2023-03-14T08:13:41;98854.84;;;14.34;100.00
4705;BME280;2366;51.332;6.610;2023-03-14T08:16:07;98851.81;;;14.29;99.67
4705;BME280;2366;51.332;6.610;2023-03-14T08:18:33;98858.47;;;14.33;100.00
4705;BME280;2366;51.332;6.610;2023-03-14T08:20:58;98849.47;;;14.26;99.52
4705;BME280;2366;51.332;6.610;2023-03-14T08:23:24;98853.66;;;14.28;99.16
4705;BME280;2366;51.332;6.610;2023-03-14T08:25:49;98848.81;;;14.24;99.66
4705;BME280;2366;51.332;6.610;2023-03-14T08:28:16;98856.94;;;14.22;100.00
4705;BME280;2366;51.332;6.610;2023-03-14T08:30:41;98864.97;;;14.30;100.00
4705;BME280;2366;51.332;6.610;2023-03-14T08:33:07;98860.66;;;14.29;99.58
4705;BME280;2366;51.332;6.610;2023-03-14T08:35:32;98870.00;;;14.33;100.00
4705;BME280;2366;51.332;6.610;2023-03-14T08:37:57;98873.81;;;14.23;98.90
4705;BME280;2366;51.332;6.610;2023-03-14T08:40:23;98860.25;;;14.16;99.28
4705;BME280;2366;51.332;6.610;2023-03-14T08:42:48;98869.56;;;14.04;98.86
4705;BME280;2366;51.332;6.610;2023-03-14T08:45:15;98872.72;;;13.99;99.68
4705;BME280;2366;51.332;6.610;2023-03-14T08:47:41;98891.84;;;14.03;99.75
4705;BME280;2366;51.332;6.610;2023-03-14T08:50:08;98887.00;;;13.98;99.62
4705;BME280;2366;51.332;6.610;2023-03-14T08:52:34;98894.03;;;13.99;99.07
4705;BME280;2366;51.332;6.610;2023-03-14T08:54:59;98906.19;;;14.02;99.53
4705;BME280;2366;51.332;6.610;2023-03-14T08:57:25;98907.44;;;14.24;99.43
4705;BME280;2366;51.332;6.610;2023-03-14T08:59:56;98907.97;;;14.27;99.85
4705;BME280;2366;51.332;6.610;2023-03-14T09:02:23;98904.91;;;13.80;95.29
4705;BME280;2366;51.332;6.610;2023-03-14T09:04:51;98935.75;;;13.90;98.55
4705;BME280;2366;51.332;6.610;2023-03-14T09:07:17;98970.00;;;13.59;93.31
4705;BME280;2366;51.332;6.610;2023-03-14T09:09:43;98979.75;;;12.23;89.97
4705;BME280;2366;51.332;6.610;2023-03-14T09:12:08;98990.84;;;12.09;91.34
4705;BME280;2366;51.332;6.610;2023-03-14T09:14:34;98999.63;;;12.19;95.41
4705;BME280;2366;51.332;6.610;2023-03-14T09:16:59;99014.34;;;12.41;96.05
4705;BME280;2366;51.332;6.610;2023-03-14T09:19:25;99026.31;;;12.55;96.78
4705;BME280;2366;51.332;6.610;2023-03-14T09:21:50;99040.63;;;12.44;94.99
4705;BME280;2366;51.332;6.610;2023-03-14T09:24:16;99045.78;;;12.46;96.04
4705;BME280;2366;51.332;6.610;2023-03-14T09:26:42;99058.19;;;12.55;96.95
4705;BME280;2366;51.332;6.610;2023-03-14T09:29:07;99065.91;;;12.48;94.82
4705;BME280;2366;51.332;6.610;2023-03-14T09:31:33;99078.75;;;12.25;92.06
4705;BME280;2366;51.332;6.610;2023-03-14T09:33:58;99083.81;;;12.09;93.92
4705;BME280;2366;51.332;6.610;2023-03-14T09:36:24;99099.56;;;12.30;95.27
4705;BME280;2366;51.332;6.610;2023-03-14T09:38:49;99105.84;;;12.39;95.86
4705;BME280;2366;51.332;6.610;2023-03-14T09:41:27;99117.91;;;12.23;90.79
4705;BME280;2366;51.332;6.610;2023-03-14T09:44:12;99128.09;;;12.28;92.87
4705;BME280;2366;51.332;6.610;2023-03-14T09:46:40;99144.44;;;12.33;90.41
4705;BME280;2366;51.332;6.610;2023-03-14T09:49:35;99143.03;;;12.29;90.86
4705;BME280;2366;51.332;6.610;2023-03-14T09:52:01;99147.22;;;12.31;88.51
4705;BME280;2366;51.332;6.610;2023-03-14T09:54:44;99157.59;;;12.35;83.86
4705;BME280;2366;51.332;6.610;2023-03-14T09:57:14;99162.81;;;12.73;82.91
4705;BME280;2366;51.332;6.610;2023-03-14T09:59:43;99172.50;;;13.02;82.16
4705;BME280;2366;51.332;6.610;2023-03-14T10:02:19;99177.09;;;13.38;82.05
4705;BME280;2366;51.332;6.610;2023-03-14T10:04:47;99190.16;;;13.59;80.28
4705;BME280;2366;51.332;6.610;2023-03-14T10:07:14;99194.59;;;13.86;78.99
4705;BME280;2366;51.332;6.610;2023-03-14T10:09:43;99214.47;;;14.27;74.23
4705;BME280;2366;51.332;6.610;2023-03-14T10:12:08;99213.63;;;14.09;74.07
4705;BME280;2366;51.332;6.610;2023-03-14T10:14:37;99222.16;;;13.94;74.08
4705;BME280;2366;51.332;6.610;2023-03-14T10:17:07;99237.91;;;14.06;72.72
4705;BME280;2366;51.332;6.610;2023-03-14T10:19:35;99254.13;;;13.94;72.86
4705;BME280;2366;51.332;6.610;2023-03-14T10:22:03;99256.59;;;13.78;71.09
4705;BME280;2366;51.332;6.610;2023-03-14T10:24:33;99262.13;;;13.67;71.96
4705;BME280;2366;51.332;6.610;2023-03-14T10:29:30;99274.41;;;13.50;70.01
4705;BME280;2366;51.332;6.610;2023-03-14T10:32:01;99303.91;;;13.29;71.77
4705;BME280;2366;51.332;6.610;2023-03-14T10:34:34;99311.38;;;12.96;71.64
4705;BME280;2366;51.332;6.610;2023-03-14T10:37:22;99331.00;;;12.66;73.09
4705;BME280;2366;51.332;6.610;2023-03-14T10:39:55;99348.38;;;12.41;74.71
4705;BME280;2366;51.332;6.610;2023-03-14T10:45:06;99368.22;;;11.56;75.30
4705;BME280;2366;51.332;6.610;2023-03-14T10:47:35;99395.03;;;11.52;75.17
4705;BME280;2366;51.332;6.610;2023-03-14T10:50:27;99407.22;;;11.13;74.69
4705;BME280;2366;51.332;6.610;2023-03-14T10:52:54;99419.22;;;11.38;76.52
4705;BME280;2366;51.332;6.610;2023-03-14T10:55:20;99414.47;;;11.32;74.85
4705;BME280;2366;51.332;6.610;2023-03-14T10:57:46;99432.69;;;11.04;74.97
4705;BME280;2366;51.332;6.610;2023-03-14T11:00:16;99436.13;;;11.16;75.21
4705;BME280;2366;51.332;6.610;2023-03-14T11:08:09;99484.75;;;11.05;72.28
4705;BME280;2366;51.332;6.610;2023-03-14T11:10:39;99494.06;;;10.67;72.12
4705;BME280;2366;51.332;6.610;2023-03-14T11:13:22;99509.03;;;10.35;72.20
4705;BME280;2366;51.332;6.610;2023-03-14T11:15:59;99524.28;;;10.20;73.76
4705;BME280;2366;51.332;6.610;2023-03-14T11:21:13;99553.94;;;11.14;70.55
4705;BME280;2366;51.332;6.610;2023-03-14T11:24:06;99564.63;;;10.91;69.06
4705;BME280;2366;51.332;6.610;2023-03-14T11:26:44;99574.63;;;10.54;67.98
4705;BME280;2366;51.332;6.610;2023-03-14T11:29:23;99577.16;;;10.66;67.20
4705;BME280;2366;51.332;6.610;2023-03-14T11:31:55;99580.44;;;11.25;67.18
4705;BME280;2366;51.332;6.610;2023-03-14T11:34:28;99588.22;;;11.70;65.14
4705;BME280;2366;51.332;6.610;2023-03-14T11:37:06;99596.06;;;12.35;64.81
4705;BME280;2366;51.332;6.610;2023-03-14T11:39:40;99612.50;;;11.98;63.14
4705;BME280;2366;51.332;6.610;2023-03-14T11:42:24;99620.19;;;10.70;64.23
4705;BME280;2366;51.332;6.610;2023-03-14T11:44:52;99620.31;;;10.91;65.08
4705;BME280;2366;51.332;6.610;2023-03-14T11:47:34;99629.13;;;11.67;64.58
4705;BME280;2366;51.332;6.610;2023-03-14T11:50:16;99635.66;;;11.31;62.91
4705;BME280;2366;51.332;6.610;2023-03-14T11:55:40;99657.84;;;11.30;64.27
4705;BME280;2366;51.332;6.610;2023-03-14T11:58:17;99667.41;;;10.99;62.55
4705;BME280;2366;51.332;6.610;2023-03-14T12:00:44;99668.50;;;10.96;62.61
4705;BME280;2366;51.332;6.610;2023-03-14T12:03:24;99684.81;;;11.90;61.72
4705;BME280;2366;51.332;6.610;2023-03-14T12:06:13;99685.91;;;11.44;60.87
4705;BME280;2366;51.332;6.610;2023-03-14T12:13:55;99705.03;;;11.70;61.70
4705;BME280;2366;51.332;6.610;2023-03-14T12:18:50;99723.41;;;12.68;58.39
4705;BME280;2366;51.332;6.610;2023-03-14T12:21:16;99733.69;;;12.52;55.27
4705;BME280;2366;51.332;6.610;2023-03-14T12:23:49;99742.06;;;12.47;57.17
4705;BME280;2366;51.332;6.610;2023-03-14T12:26:18;99749.06;;;13.31;56.08
4705;BME280;2366;51.332;6.610;2023-03-14T12:28:50;99754.03;;;13.45;55.29
4705;BME280;2366;51.332;6.610;2023-03-14T12:42:10;99814.19;;;9.92;67.33
4705;BME280;2366;51.332;6.610;2023-03-14T12:52:16;99847.53;;;10.31;68.37
4705;BME280;2366;51.332;6.610;2023-03-14T12:55:05;99862.28;;;10.82;67.50
4705;BME280;2366;51.332;6.610;2023-03-14T13:00:22;99881.38;;;10.98;65.27
4705;BME280;2366;51.332;6.610;2023-03-14T13:02:49;99877.13;;;11.42;63.31
4705;BME280;2366;51.332;6.610;2023-03-14T13:05:20;99896.03;;;10.80;64.74
4705;BME280;2366;51.332;6.610;2023-03-14T13:13:24;99902.94;;;12.19;63.20
4705;BME280;2366;51.332;6.610;2023-03-14T13:15:33;99906.72;;;11.60;60.36
4705;BME280;2366;51.332;6.610;2023-03-14T13:18:02;99928.75;;;11.38;59.14
4705;BME280;2366;51.332;6.610;2023-03-14T13:20:36;99931.91;;;11.43;59.91
4705;BME280;2366;51.332;6.610;2023-03-14T13:23:02;99931.69;;;11.69;60.29
4705;BME280;2366;51.332;6.610;2023-03-14T13:25:35;99933.88;;;12.09;59.67
4705;BME280;2366;51.332;6.610;2023-03-14T13:28:02;99944.13;;;12.36;56.82
4705;BME280;2366;51.332;6.610;2023-03-14T13:30:36;99946.16;;;11.76;59.29
4705;BME280;2366;51.332;6.610;2023-03-14T13:33:04;99959.81;;;12.28;57.45
4705;BME280;2366;51.332;6.610;2023-03-14T13:35:39;99955.81;;;12.33;56.96
4705;BME280;2366;51.332;6.610;2023-03-14T13:38:13;99963.31;;;12.40;55.43
4705;BME280;2366;51.332;6.610;2023-03-14T13:40:43;99960.94;;;12.25;52.66
4705;BME280;2366;51.332;6.610;2023-03-14T13:45:50;99960.94;;;12.25;53.22
4705;BME280;2366;51.332;6.610;2023-03-14T13:48:17;99969.59;;;12.16;50.92
4705;BME280;2366;51.332;6.610;2023-03-14T13:50:50;99976.09;;;12.46;50.55
4705;BME280;2366;51.332;6.610;2023-03-14T13:53:17;99976.56;;;11.72;48.33
4705;BME280;2366;51.332;6.610;2023-03-14T13:55:42;99987.22;;;11.83;49.70
4705;BME280;2366;51.332;6.610;2023-03-14T13:58:26;99995.75;;;11.64;50.39
4705;BME280;2366;51.332;6.610;2023-03-14T14:01:04;100002.00;;;12.21;50.88
4705;BME280;2366;51.332;6.610;2023-03-14T14:03:32;99999.56;;;12.18;49.28
4705;BME280;2366;51.332;6.610;2023-03-14T14:05:59;100008.00;;;12.12;47.66
4705;BME280;2366;51.332;6.610;2023-03-14T14:08:25;100008.84;;;11.90;48.33
4705;BME280;2366;51.332;6.610;2023-03-14T14:10:56;100012.19;;;11.69;47.79
4705;BME280;2366;51.332;6.610;2023-03-14T14:13:23;100016.25;;;11.62;47.41
4705;BME280;2366;51.332;6.610;2023-03-14T14:15:51;100011.84;;;11.85;47.37
4705;BME280;2366;51.332;6.610;2023-03-14T14:18:22;100021.84;;;11.82;44.65
4705;BME280;2366;51.332;6.610;2023-03-14T14:20:50;100026.00;;;11.50;45.74
4705;BME280;2366;51.332;6.610;2023-03-14T14:23:19;100025.56;;;11.68;45.58
4705;BME280;2366;51.332;6.610;2023-03-14T14:25:50;100031.03;;;11.78;43.52